createdAt,value
2023-02-19T00:00:46.965Z,7.20
2023-02-19T00:02:50.999Z,6.15
2023-02-19T00:04:53.927Z,5.38
2023-02-19T00:06:56.955Z,22.92
2023-02-19T00:09:00.574Z,8.52
2023-02-19T00:11:06.351Z,10.57
2023-02-19T00:13:09.270Z,12.43
2023-02-19T00:15:12.055Z,13.55
2023-02-19T00:17:14.850Z,18.75
2023-02-19T00:19:20.923Z,10.60
2023-02-19T00:21:24.537Z,19.65
2023-02-19T00:23:28.025Z,10.93
2023-02-19T00:25:30.787Z,8.85
2023-02-19T00:27:35.055Z,9.40
2023-02-19T00:29:37.834Z,14.05
2023-02-19T00:31:41.134Z,9.60
2023-02-19T00:33:44.302Z,23.00
2023-02-19T00:35:47.118Z,6.15
2023-02-19T00:37:50.044Z,16.38
2023-02-19T00:39:52.869Z,8.73
2023-02-19T00:41:55.696Z,12.77
2023-02-19T00:44:01.994Z,11.30
2023-02-19T00:46:05.070Z,10.55
2023-02-19T00:48:08.068Z,4.53
2023-02-19T00:50:11.157Z,18.58
2023-02-19T00:52:13.940Z,29.98
2023-02-19T00:54:17.261Z,7.05
2023-02-19T00:56:20.081Z,14.90
2023-02-19T00:58:22.888Z,20.15
2023-02-19T01:00:27.180Z,10.02
2023-02-19T01:02:29.983Z,5.78
2023-02-19T01:04:33.133Z,4.70
2023-02-19T01:06:36.070Z,10.05
2023-02-19T01:08:39.185Z,4.78
2023-02-19T01:10:42.234Z,7.47
2023-02-19T01:12:45.384Z,5.57
2023-02-19T01:14:48.156Z,6.13
2023-02-19T01:16:52.325Z,6.78
2023-02-19T01:18:55.955Z,5.68
2023-02-19T01:20:58.777Z,7.55
2023-02-19T01:23:01.676Z,5.70
2023-02-19T01:25:04.631Z,5.22
2023-02-19T01:27:07.679Z,7.38
2023-02-19T01:29:11.109Z,6.28
2023-02-19T01:31:15.848Z,4.78
2023-02-19T01:35:22.830Z,7.15
2023-02-19T01:37:26.031Z,3.88
2023-02-19T01:39:28.855Z,5.70
2023-02-19T01:41:32.860Z,9.82
2023-02-19T01:43:55.938Z,9.88
2023-02-19T01:45:58.747Z,7.90
2023-02-19T01:48:10.895Z,11.05
2023-02-19T01:50:15.206Z,11.07
2023-02-19T01:52:25.659Z,11.70
2023-02-19T01:54:32.416Z,5.75
2023-02-19T01:56:38.322Z,14.95
2023-02-19T01:58:42.078Z,7.05
2023-02-19T02:00:44.990Z,16.58
2023-02-19T02:02:52.499Z,6.82
2023-02-19T02:04:55.357Z,7.85
2023-02-19T02:07:02.785Z,11.80
2023-02-19T02:09:23.521Z,5.68
2023-02-19T02:11:26.482Z,4.97
2023-02-19T02:13:30.530Z,7.53
2023-02-19T02:15:41.425Z,5.85
2023-02-19T02:17:54.780Z,4.25
2023-02-19T02:20:14.263Z,10.55
2023-02-19T02:22:22.059Z,6.85
2023-02-19T02:24:50.887Z,9.07
2023-02-19T02:27:07.637Z,9.30
2023-02-19T02:29:27.890Z,6.05
2023-02-19T02:31:36.889Z,9.52
2023-02-19T02:33:45.357Z,10.38
2023-02-19T02:35:51.204Z,12.05
2023-02-19T02:37:59.385Z,8.70
2023-02-19T02:40:03.325Z,8.60
2023-02-19T02:44:36.048Z,6.78
2023-02-19T02:46:43.488Z,2.42
2023-02-19T02:48:53.772Z,9.15
2023-02-19T02:51:01.243Z,9.57
2023-02-19T02:53:30.038Z,8.52
2023-02-19T02:55:37.123Z,5.50
2023-02-19T02:57:40.027Z,3.47
2023-02-19T02:59:44.190Z,4.40
2023-02-19T03:02:10.730Z,9.65
2023-02-19T03:04:20.831Z,8.73
2023-02-19T03:06:26.024Z,7.63
2023-02-19T03:08:32.117Z,6.10
2023-02-19T03:10:38.842Z,9.23
2023-02-19T03:13:01.639Z,6.28
2023-02-19T03:15:28.687Z,6.53
2023-02-19T03:17:53.247Z,3.75
2023-02-19T03:19:59.456Z,4.20
2023-02-19T03:22:10.730Z,4.13
2023-02-19T03:24:34.219Z,5.00
2023-02-19T03:26:38.834Z,4.45
2023-02-19T03:29:04.247Z,3.25
2023-02-19T03:31:10.662Z,4.05
2023-02-19T03:33:17.832Z,5.80
2023-02-19T03:35:24.025Z,7.00
2023-02-19T03:37:31.660Z,9.30
2023-02-19T03:39:44.176Z,7.97
2023-02-19T03:41:57.048Z,9.45
2023-02-19T03:44:08.873Z,5.07
2023-02-19T03:46:16.792Z,4.53
2023-02-19T03:48:28.483Z,5.72
2023-02-19T03:50:42.535Z,10.43
2023-02-19T03:52:54.600Z,8.38
2023-02-19T03:55:04.252Z,6.65
2023-02-19T03:57:17.430Z,11.00
2023-02-19T03:59:27.322Z,17.35
2023-02-19T04:01:37.820Z,7.05
2023-02-19T04:03:47.000Z,9.90
2023-02-19T04:05:56.174Z,6.53
2023-02-19T04:08:05.176Z,7.55
2023-02-19T04:10:16.014Z,12.20
2023-02-19T04:12:22.403Z,7.20
2023-02-19T04:14:29.919Z,7.55
2023-02-19T04:16:35.696Z,9.02
2023-02-19T04:18:41.956Z,10.35
2023-02-19T04:20:48.641Z,9.55
2023-02-19T04:22:52.361Z,6.45
2023-02-19T04:24:56.598Z,7.70
2023-02-19T04:27:00.187Z,6.75
2023-02-19T04:29:03.275Z,9.10
2023-02-19T04:31:07.086Z,6.57
2023-02-19T04:33:10.357Z,10.27
2023-02-19T04:35:13.185Z,8.65
2023-02-19T04:37:17.306Z,7.20
2023-02-19T04:39:20.282Z,6.57
2023-02-19T04:41:23.067Z,10.50
2023-02-19T04:43:25.874Z,11.20
2023-02-19T04:45:28.689Z,8.88
2023-02-19T04:47:33.022Z,10.02
2023-02-19T04:49:35.760Z,5.68
2023-02-19T04:51:39.511Z,10.23
2023-02-19T04:53:43.738Z,8.00
2023-02-19T04:55:47.999Z,4.32
2023-02-19T04:57:50.828Z,3.83
2023-02-19T04:59:53.603Z,7.30
2023-02-19T05:01:57.454Z,3.13
2023-02-19T05:04:00.285Z,4.50
2023-02-19T05:06:04.346Z,3.97
2023-02-19T05:08:07.218Z,10.15
2023-02-19T05:10:11.456Z,4.10
2023-02-19T05:12:14.268Z,9.40
2023-02-19T05:14:17.144Z,6.15
2023-02-19T05:16:20.134Z,7.65
2023-02-19T05:18:23.349Z,6.93
2023-02-19T05:20:26.152Z,7.25
2023-02-19T05:22:29.628Z,6.15
2023-02-19T05:24:32.421Z,7.95
2023-02-19T05:26:36.868Z,9.07
2023-02-19T05:28:39.665Z,11.77
2023-02-19T05:30:42.469Z,6.13
2023-02-19T05:32:45.399Z,7.63
2023-02-19T05:34:48.204Z,6.90
2023-02-19T05:36:51.092Z,4.10
2023-02-19T05:38:55.251Z,5.63
2023-02-19T05:41:08.689Z,7.72
2023-02-19T05:43:13.452Z,5.28
2023-02-19T05:45:16.368Z,4.63
2023-02-19T05:47:19.152Z,7.70
2023-02-19T05:49:21.985Z,10.73
2023-02-19T05:51:27.149Z,4.35
2023-02-19T05:53:30.075Z,7.22
2023-02-19T05:55:36.713Z,5.15
2023-02-19T05:57:43.413Z,4.63
2023-02-19T05:59:47.891Z,2.92
2023-02-19T06:01:51.724Z,3.03
2023-02-19T06:03:57.318Z,2.97
2023-02-19T06:06:00.509Z,4.82
2023-02-19T06:08:03.285Z,2.45
2023-02-19T06:10:06.845Z,3.28
2023-02-19T06:12:09.613Z,3.05
2023-02-19T06:14:13.469Z,3.05
2023-02-19T06:16:18.609Z,2.60
2023-02-19T06:18:21.428Z,4.10
2023-02-19T06:20:26.062Z,3.67
2023-02-19T06:24:31.901Z,3.83
2023-02-19T06:26:34.761Z,3.65
2023-02-19T06:28:38.131Z,3.92
2023-02-19T06:30:42.787Z,3.17
2023-02-19T06:32:46.946Z,4.05
2023-02-19T06:34:49.727Z,4.28
2023-02-19T06:36:52.573Z,4.75
2023-02-19T06:38:55.373Z,3.83
2023-02-19T06:41:01.668Z,3.60
2023-02-19T06:43:04.470Z,5.22
2023-02-19T06:45:07.664Z,4.35
2023-02-19T06:47:10.444Z,3.47
2023-02-19T06:49:15.256Z,9.05
2023-02-19T06:53:25.472Z,3.83
2023-02-19T06:55:28.431Z,4.68
2023-02-19T06:57:31.280Z,4.25
2023-02-19T06:59:34.073Z,4.47
2023-02-19T07:01:37.902Z,4.85
2023-02-19T07:03:40.682Z,5.20
2023-02-19T07:05:44.825Z,4.03
2023-02-19T07:07:47.583Z,3.17
2023-02-19T07:09:50.361Z,3.55
2023-02-19T07:11:53.131Z,4.35
2023-02-19T07:13:56.768Z,3.30
2023-02-19T07:16:00.570Z,5.00
2023-02-19T07:18:05.212Z,2.53
2023-02-19T07:20:08.159Z,4.30
2023-02-19T07:22:12.345Z,7.38
2023-02-19T07:24:15.242Z,4.25
2023-02-19T07:26:19.999Z,6.00
2023-02-19T07:30:25.536Z,3.05
2023-02-19T07:32:28.548Z,3.58
2023-02-19T07:34:31.301Z,2.85
2023-02-19T07:36:34.063Z,2.75
2023-02-19T07:38:38.170Z,3.97
2023-02-19T07:40:40.986Z,5.80
2023-02-19T07:42:43.804Z,3.90
2023-02-19T07:44:46.551Z,3.85
2023-02-19T07:46:49.327Z,4.93
2023-02-19T07:48:52.121Z,5.30
2023-02-19T07:50:56.375Z,3.33
2023-02-19T07:52:59.771Z,4.18
2023-02-19T07:55:03.879Z,4.65
2023-02-19T07:57:06.630Z,4.45
2023-02-19T07:59:09.407Z,6.10
2023-02-19T08:01:15.582Z,3.88
2023-02-19T08:03:17.425Z,3.83
2023-02-19T08:05:20.215Z,4.63
2023-02-19T08:07:22.995Z,4.97
2023-02-19T08:09:25.705Z,5.85
2023-02-19T08:11:47.451Z,4.30
2023-02-19T08:13:50.161Z,4.45
2023-02-19T08:15:57.758Z,4.88
2023-02-19T08:18:04.829Z,3.75
2023-02-19T08:20:08.368Z,3.78
2023-02-19T08:22:11.295Z,6.22
2023-02-19T08:24:14.093Z,4.35
2023-02-19T08:26:17.146Z,6.53
2023-02-19T08:28:21.294Z,6.45
2023-02-19T08:30:24.326Z,5.10
2023-02-19T08:32:27.136Z,5.20
2023-02-19T08:34:29.900Z,5.57
2023-02-19T08:36:32.824Z,5.45
2023-02-19T08:38:37.645Z,5.25
2023-02-19T08:40:41.799Z,4.03
2023-02-19T08:42:44.603Z,5.95
2023-02-19T08:44:48.730Z,8.30
2023-02-19T08:46:51.516Z,3.67
2023-02-19T08:48:54.508Z,5.68
2023-02-19T08:50:58.381Z,4.47
2023-02-19T08:53:01.956Z,10.40
2023-02-19T08:55:06.159Z,6.78
2023-02-19T08:57:09.115Z,7.28
2023-02-19T08:59:11.858Z,7.53
2023-02-19T09:01:18.266Z,5.22
2023-02-19T09:03:28.196Z,4.70
2023-02-19T09:05:31.466Z,6.47
2023-02-19T09:07:34.606Z,5.65
2023-02-19T09:09:38.366Z,5.32
2023-02-19T09:11:41.187Z,6.45
2023-02-19T09:13:44.136Z,6.18
2023-02-19T09:15:47.017Z,4.50
2023-02-19T09:17:53.751Z,7.07
2023-02-19T09:19:56.524Z,8.27
2023-02-19T09:21:59.477Z,5.15
2023-02-19T09:24:02.445Z,6.22
2023-02-19T09:26:09.299Z,5.47
2023-02-19T09:28:12.218Z,4.30
2023-02-19T09:30:15.084Z,4.07
2023-02-19T09:32:19.350Z,4.80
2023-02-19T09:34:23.670Z,5.55
2023-02-19T09:36:26.622Z,4.82
2023-02-19T09:38:30.856Z,6.85
2023-02-19T09:40:33.967Z,7.15
2023-02-19T09:42:36.954Z,5.03
2023-02-19T09:44:42.498Z,4.93
2023-02-19T09:46:51.802Z,5.75
2023-02-19T09:48:59.920Z,6.78
2023-02-19T09:51:05.315Z,6.22
2023-02-19T09:53:16.343Z,4.70
2023-02-19T09:55:28.528Z,6.25
2023-02-19T09:57:35.692Z,7.47
2023-02-19T09:59:43.372Z,4.28
2023-02-19T10:01:49.329Z,3.28
2023-02-19T10:03:52.107Z,6.35
2023-02-19T10:05:56.449Z,7.47
2023-02-19T10:08:01.554Z,4.80
2023-02-19T10:10:23.157Z,5.63
2023-02-19T10:12:28.348Z,6.20
2023-02-19T10:14:36.089Z,4.95
2023-02-19T10:16:43.080Z,4.97
2023-02-19T10:18:47.062Z,5.50
2023-02-19T10:20:51.509Z,4.32
2023-02-19T10:23:01.475Z,5.80
2023-02-19T10:25:04.588Z,3.53
2023-02-19T10:27:11.330Z,5.35
2023-02-19T10:29:14.099Z,5.88
2023-02-19T10:31:22.345Z,4.72
2023-02-19T10:33:25.993Z,3.75
2023-02-19T10:35:29.862Z,3.33
2023-02-19T10:37:33.662Z,3.55
2023-02-19T10:39:44.919Z,6.43
2023-02-19T10:41:47.971Z,4.47
2023-02-19T10:43:55.537Z,4.55
2023-02-19T10:46:00.640Z,5.22
2023-02-19T10:48:04.451Z,4.30
2023-02-19T10:50:08.733Z,7.43
2023-02-19T10:52:20.030Z,4.45
2023-02-19T10:54:28.465Z,2.92
2023-02-19T10:56:33.714Z,6.15
2023-02-19T10:58:37.855Z,4.65
2023-02-19T11:00:40.741Z,5.65
2023-02-19T11:02:44.671Z,7.30
2023-02-19T11:05:06.101Z,8.65
2023-02-19T11:07:10.608Z,3.17
2023-02-19T11:09:26.645Z,5.38
2023-02-19T11:11:37.212Z,3.17
2023-02-19T11:13:43.319Z,7.13
2023-02-19T11:15:52.806Z,4.57
2023-02-19T11:17:57.771Z,3.70
2023-02-19T11:20:04.611Z,3.53
2023-02-19T11:22:20.856Z,2.28
2023-02-19T11:24:28.984Z,6.32
2023-02-19T11:26:38.060Z,3.65
2023-02-19T11:28:44.229Z,3.28
2023-02-19T11:30:48.426Z,4.07
2023-02-19T11:32:51.264Z,3.60
2023-02-19T11:35:14.865Z,2.95
2023-02-19T11:37:19.232Z,4.05
2023-02-19T11:39:28.917Z,3.78
2023-02-19T11:41:50.969Z,5.07
2023-02-19T11:44:13.808Z,3.00
2023-02-19T11:46:25.748Z,6.15
2023-02-19T11:48:55.368Z,3.97
2023-02-19T11:51:14.914Z,5.28
2023-02-19T11:53:26.010Z,6.68
2023-02-19T11:55:43.593Z,7.05
2023-02-19T11:57:49.128Z,4.60
2023-02-19T12:00:03.359Z,2.92
2023-02-19T12:02:33.462Z,3.45
2023-02-19T12:05:01.533Z,4.63
2023-02-19T12:07:17.041Z,3.65
2023-02-19T12:09:32.471Z,5.97
2023-02-19T12:11:53.512Z,3.33
2023-02-19T12:14:09.846Z,3.53
2023-02-19T12:16:25.994Z,4.45
2023-02-19T12:19:01.023Z,4.65
2023-02-19T12:21:18.887Z,4.22
2023-02-19T12:23:52.629Z,4.32
2023-02-19T12:26:02.806Z,4.88
2023-02-19T12:28:28.023Z,7.70
2023-02-19T12:31:09.379Z,5.15
2023-02-19T12:33:35.212Z,4.78
2023-02-19T12:35:52.889Z,6.60
2023-02-19T12:38:07.060Z,5.78
2023-02-19T12:40:26.849Z,7.18
2023-02-19T12:42:46.410Z,8.32
2023-02-19T12:44:56.071Z,9.35
2023-02-19T12:47:02.544Z,5.28
2023-02-19T12:49:14.589Z,4.97
2023-02-19T12:51:23.191Z,5.90
2023-02-19T12:53:42.973Z,4.57
2023-02-19T12:55:47.577Z,5.10
2023-02-19T12:57:52.202Z,5.88
2023-02-19T13:00:00.006Z,5.65
2023-02-19T13:02:12.258Z,6.07
2023-02-19T13:04:24.203Z,4.22
2023-02-19T13:06:36.581Z,6.32
2023-02-19T13:08:57.849Z,4.30
2023-02-19T13:11:15.127Z,5.32
2023-02-19T13:13:23.998Z,3.85
2023-02-19T13:15:34.556Z,6.22
2023-02-19T13:17:43.711Z,6.70
2023-02-19T13:19:51.201Z,6.13
2023-02-19T13:22:21.890Z,7.55
2023-02-19T13:24:28.905Z,7.57
2023-02-19T13:26:50.668Z,7.35
2023-02-19T13:29:06.993Z,18.88
2023-02-19T13:31:27.698Z,4.22
2023-02-19T13:33:44.057Z,6.93
2023-02-19T13:36:10.030Z,4.28
2023-02-19T13:38:14.097Z,6.50
2023-02-19T13:40:26.276Z,3.67
2023-02-19T13:42:33.126Z,6.28
2023-02-19T13:44:40.871Z,5.90
2023-02-19T13:46:46.137Z,7.78
2023-02-19T13:48:49.189Z,6.07
2023-02-19T13:51:12.482Z,6.95
2023-02-19T13:53:51.766Z,5.93
2023-02-19T13:55:54.661Z,8.80
2023-02-19T13:58:34.071Z,7.20
2023-02-19T14:00:51.074Z,4.97
2023-02-19T14:03:31.305Z,5.57
2023-02-19T14:06:00.324Z,3.80
2023-02-19T14:08:03.858Z,5.07
2023-02-19T14:10:13.141Z,5.90
2023-02-19T14:12:21.147Z,6.40
2023-02-19T14:14:29.424Z,4.95
2023-02-19T14:16:49.424Z,6.85
2023-02-19T14:18:55.366Z,4.80
2023-02-19T14:21:08.590Z,4.60
2023-02-19T14:23:24.681Z,4.25
2023-02-19T14:25:50.260Z,4.75
2023-02-19T14:27:54.642Z,2.83
2023-02-19T14:29:57.494Z,6.35
2023-02-19T14:32:02.104Z,3.38
2023-02-19T14:34:19.527Z,5.82
2023-02-19T14:36:32.470Z,4.22
2023-02-19T14:38:40.279Z,4.25
2023-02-19T14:40:44.584Z,7.57
2023-02-19T14:42:48.694Z,5.00
2023-02-19T14:44:53.974Z,6.80
2023-02-19T14:46:59.793Z,7.07
2023-02-19T14:49:12.727Z,6.38
2023-02-19T14:51:27.153Z,7.00
2023-02-19T14:53:32.404Z,6.20
2023-02-19T14:55:37.836Z,7.25
2023-02-19T14:57:42.819Z,3.97
2023-02-19T14:59:57.317Z,9.27
2023-02-19T15:02:02.540Z,5.90
2023-02-19T15:04:06.034Z,8.32
2023-02-19T15:06:16.352Z,6.82
2023-02-19T15:08:26.687Z,4.78
2023-02-19T15:10:33.036Z,12.85
2023-02-19T15:12:44.361Z,4.95
2023-02-19T15:14:48.421Z,4.97
2023-02-19T15:16:55.669Z,7.97
2023-02-19T15:18:59.584Z,5.50
2023-02-19T15:21:05.613Z,6.13
2023-02-19T15:23:08.790Z,4.97
2023-02-19T15:25:18.782Z,3.65
2023-02-19T15:27:24.385Z,4.15
2023-02-19T15:29:29.994Z,6.57
2023-02-19T15:31:32.920Z,6.60
2023-02-19T15:33:36.063Z,5.78
2023-02-19T15:35:39.380Z,7.50
2023-02-19T15:37:42.683Z,5.50
2023-02-19T15:39:48.159Z,5.40
2023-02-19T15:41:58.472Z,6.20
2023-02-19T15:44:14.709Z,4.00
2023-02-19T15:48:28.608Z,7.47
2023-02-19T15:50:34.404Z,5.80
2023-02-19T15:52:45.551Z,5.13
2023-02-19T15:54:52.923Z,4.55
2023-02-19T15:57:01.901Z,6.72
2023-02-19T15:59:08.173Z,7.88
2023-02-19T16:01:19.468Z,5.50
2023-02-19T16:03:25.278Z,10.43
2023-02-19T16:05:30.599Z,6.20
2023-02-19T16:07:33.399Z,13.00
2023-02-19T16:09:38.616Z,14.80
2023-02-19T16:11:50.740Z,14.95
2023-02-19T16:14:19.505Z,8.13
2023-02-19T16:16:27.314Z,5.57
2023-02-19T16:18:31.066Z,10.57
2023-02-19T16:22:42.898Z,4.57
2023-02-19T16:24:47.417Z,7.18
2023-02-19T16:26:50.222Z,9.18
2023-02-19T16:28:55.371Z,11.80
2023-02-19T16:30:59.932Z,5.70
2023-02-19T16:33:36.663Z,6.05
2023-02-19T16:35:40.841Z,6.10
2023-02-19T16:37:58.585Z,11.05
2023-02-19T16:40:41.769Z,9.15
2023-02-19T16:43:29.260Z,9.23
2023-02-19T16:45:32.058Z,9.55
2023-02-19T16:47:41.555Z,7.25
2023-02-19T16:49:44.868Z,8.82
2023-02-19T16:51:48.093Z,6.68
2023-02-19T16:53:50.928Z,6.10
2023-02-19T16:55:53.805Z,6.38
2023-02-19T16:57:57.032Z,5.85
2023-02-19T17:00:01.360Z,6.10
2023-02-19T17:02:05.191Z,5.15
2023-02-19T17:04:10.491Z,7.60
2023-02-19T17:06:13.486Z,8.90
2023-02-19T17:08:31.086Z,6.88
2023-02-19T17:10:33.851Z,6.95
2023-02-19T17:12:36.664Z,7.85
2023-02-19T17:14:39.468Z,4.65
2023-02-19T17:16:43.656Z,6.63
2023-02-19T17:18:46.544Z,7.05
2023-02-19T17:20:51.707Z,5.57
2023-02-19T17:22:54.559Z,7.00
2023-02-19T17:24:57.324Z,7.78
2023-02-19T17:27:00.212Z,9.75
2023-02-19T17:29:05.599Z,8.98
2023-02-19T17:31:09.811Z,10.82
2023-02-19T17:33:14.122Z,14.77
2023-02-19T17:35:17.288Z,13.52
2023-02-19T17:37:20.071Z,10.27
2023-02-19T17:39:23.995Z,12.07
2023-02-19T17:41:27.540Z,10.07
2023-02-19T17:43:30.416Z,6.60
2023-02-19T17:45:33.445Z,10.45
2023-02-19T17:47:36.276Z,6.32
2023-02-19T17:49:40.349Z,10.38
2023-02-19T17:51:43.119Z,13.70
2023-02-19T17:53:46.458Z,21.67
2023-02-19T17:55:49.339Z,13.18
2023-02-19T17:57:53.322Z,9.57
2023-02-19T17:59:56.263Z,9.00
2023-02-19T18:01:58.969Z,11.45
2023-02-19T18:04:01.870Z,11.40
2023-02-19T18:06:06.607Z,9.18
2023-02-19T18:10:33.525Z,10.82
2023-02-19T18:12:36.423Z,11.57
2023-02-19T18:14:39.223Z,12.27
2023-02-19T18:16:48.761Z,13.43
2023-02-19T18:18:53.073Z,16.15
2023-02-19T18:20:55.920Z,13.77
2023-02-19T18:23:00.050Z,10.25
2023-02-19T18:25:02.941Z,10.30
2023-02-19T18:27:05.818Z,11.23
2023-02-19T18:29:08.616Z,8.07
2023-02-19T18:31:11.976Z,11.75
2023-02-19T18:33:15.065Z,11.07
2023-02-19T18:35:19.577Z,11.07
2023-02-19T18:37:23.059Z,9.80
2023-02-19T18:39:27.238Z,12.18
2023-02-19T18:41:30.007Z,10.57
2023-02-19T18:43:32.793Z,10.43
2023-02-19T18:45:37.235Z,12.57
2023-02-19T18:47:40.081Z,8.75
2023-02-19T18:49:46.747Z,8.15
2023-02-19T18:51:49.550Z,7.38
2023-02-19T18:53:52.371Z,7.10
2023-02-19T18:55:56.814Z,9.18
2023-02-19T18:57:59.599Z,10.35
2023-02-19T19:00:02.382Z,10.05
2023-02-19T19:02:07.757Z,7.95
2023-02-19T19:04:10.689Z,9.07
2023-02-19T19:06:13.526Z,7.50
2023-02-19T19:08:16.367Z,5.40
2023-02-19T19:10:20.076Z,8.93
2023-02-19T19:12:24.226Z,10.38
2023-02-19T19:14:28.350Z,10.23
2023-02-19T19:16:31.594Z,7.07
2023-02-19T19:18:38.026Z,7.40
2023-02-19T19:20:40.925Z,11.30
2023-02-19T19:22:43.812Z,8.82
2023-02-19T19:24:46.576Z,11.07
2023-02-19T19:26:50.757Z,10.75
2023-02-19T19:28:55.149Z,10.30
2023-02-19T19:30:58.078Z,12.00
2023-02-19T19:33:03.385Z,7.47
2023-02-19T19:35:06.531Z,11.65
2023-02-19T19:37:09.422Z,9.65
2023-02-19T19:39:12.391Z,9.55
2023-02-19T19:41:15.675Z,9.68
2023-02-19T19:43:18.502Z,12.43
2023-02-19T19:45:22.856Z,14.65
2023-02-19T19:47:25.744Z,13.30
2023-02-19T19:49:28.602Z,12.77
2023-02-19T19:51:32.847Z,15.57
2023-02-19T19:53:35.713Z,14.50
2023-02-19T19:55:38.560Z,28.60
2023-02-19T19:57:41.379Z,15.52
2023-02-19T19:59:44.193Z,15.68
2023-02-19T20:01:53.310Z,14.48
2023-02-19T20:03:56.236Z,22.15
2023-02-19T20:05:59.131Z,23.50
2023-02-19T20:08:02.124Z,16.25
2023-02-19T20:10:06.359Z,16.75
2023-02-19T20:12:10.752Z,21.55
2023-02-19T20:14:14.305Z,17.65
2023-02-19T20:16:17.152Z,14.10
2023-02-19T20:18:21.743Z,23.13
2023-02-19T20:20:24.639Z,22.90
2023-02-19T20:22:27.521Z,16.65
2023-02-19T20:24:30.923Z,8.85
2023-02-19T20:26:33.724Z,13.80
2023-02-19T20:28:36.680Z,21.08
2023-02-19T20:30:39.503Z,13.55
2023-02-19T20:32:42.387Z,15.38
2023-02-19T20:34:46.548Z,12.55
2023-02-19T20:36:50.224Z,11.52
2023-02-19T20:38:53.084Z,13.68
2023-02-19T20:40:56.462Z,19.63
2023-02-19T20:43:00.997Z,22.75
2023-02-19T20:45:03.955Z,14.50
2023-02-19T20:47:06.787Z,11.57
2023-02-19T20:49:09.704Z,11.35
2023-02-19T20:51:13.952Z,9.20
2023-02-19T20:53:16.666Z,8.73
2023-02-19T20:55:19.503Z,12.40
2023-02-19T20:57:23.513Z,10.20
2023-02-19T20:59:30.443Z,10.00
2023-02-19T21:01:33.209Z,16.85
2023-02-19T21:03:36.109Z,9.45
2023-02-19T21:05:39.850Z,14.25
2023-02-19T21:07:44.088Z,10.50
2023-02-19T21:09:46.889Z,10.32
2023-02-19T21:11:49.787Z,13.00
2023-02-19T21:13:52.595Z,8.02
2023-02-19T21:15:55.553Z,10.57
2023-02-19T21:17:58.367Z,9.75
2023-02-19T21:20:01.122Z,7.25
2023-02-19T21:22:03.894Z,13.43
2023-02-19T21:24:10.308Z,11.45
2023-02-19T21:26:13.373Z,9.90
2023-02-19T21:28:16.410Z,10.07
2023-02-19T21:30:19.592Z,13.73
2023-02-19T21:32:22.540Z,10.82
2023-02-19T21:34:27.274Z,9.80
2023-02-19T21:36:30.228Z,9.70
2023-02-19T21:38:33.068Z,9.77
2023-02-19T21:40:37.625Z,18.13
2023-02-19T21:42:40.510Z,47.08
2023-02-19T21:44:43.324Z,62.50
2023-02-19T21:46:46.200Z,78.00
2023-02-19T21:48:49.567Z,64.82
2023-02-19T21:50:52.376Z,19.00
2023-02-19T21:52:55.169Z,14.52
2023-02-19T21:54:58.033Z,21.52
2023-02-19T21:57:04.208Z,14.43
2023-02-19T21:59:07.046Z,12.07
2023-02-19T22:01:09.930Z,8.88
2023-02-19T22:03:16.796Z,10.00
2023-02-19T22:05:19.669Z,16.92
2023-02-19T22:07:23.026Z,9.82
2023-02-19T22:09:25.904Z,8.88
2023-02-19T22:11:28.876Z,12.07
2023-02-19T22:13:32.980Z,7.43
2023-02-19T22:15:35.803Z,13.63
2023-02-19T22:17:39.305Z,12.55
2023-02-19T22:19:42.124Z,7.53
2023-02-19T22:21:45.652Z,10.88
2023-02-19T22:23:50.194Z,9.90
2023-02-19T22:25:53.123Z,6.95
2023-02-19T22:27:55.964Z,12.93
2023-02-19T22:30:00.265Z,21.02
2023-02-19T22:32:03.167Z,17.63
2023-02-19T22:34:06.128Z,11.07
2023-02-19T22:36:15.347Z,24.85
2023-02-19T22:38:18.117Z,23.98
2023-02-19T22:40:20.896Z,21.83
2023-02-19T22:42:24.203Z,79.80
2023-02-19T22:44:27.047Z,24.38
2023-02-19T22:46:31.854Z,13.10
2023-02-19T22:50:37.293Z,12.65
2023-02-19T22:52:40.067Z,17.65
2023-02-19T22:54:42.875Z,21.42
2023-02-19T22:56:45.614Z,11.82
2023-02-19T22:58:48.446Z,17.23
2023-02-19T23:00:51.314Z,12.35
2023-02-19T23:02:55.477Z,10.82
2023-02-19T23:04:58.270Z,10.18
2023-02-19T23:07:01.126Z,11.10
2023-02-19T23:09:06.546Z,10.98
2023-02-19T23:11:09.829Z,10.63
2023-02-19T23:13:12.647Z,8.88
2023-02-19T23:15:15.480Z,8.10
2023-02-19T23:17:18.280Z,14.10
2023-02-19T23:19:22.643Z,8.85
2023-02-19T23:21:25.607Z,10.95
2023-02-19T23:23:28.439Z,16.20
2023-02-19T23:25:31.243Z,12.80
2023-02-19T23:27:34.080Z,11.43
2023-02-19T23:29:36.888Z,16.60
2023-02-19T23:31:39.810Z,8.38
2023-02-19T23:33:43.474Z,12.43
2023-02-19T23:35:47.572Z,9.75
2023-02-19T23:37:50.448Z,13.75
2023-02-19T23:39:53.392Z,10.98
2023-02-19T23:41:58.106Z,9.63
2023-02-19T23:44:00.885Z,12.23
2023-02-19T23:46:03.931Z,39.92
2023-02-19T23:48:06.889Z,17.75
2023-02-19T23:50:10.394Z,10.50
2023-02-19T23:52:14.627Z,13.40
2023-02-19T23:54:17.459Z,9.65
2023-02-19T23:56:24.076Z,11.93
2023-02-19T23:58:26.945Z,10.77
